HST2365 EYVI-LTAI
Flight info
| Callsign | HST2365 |
|---|---|
| Flight time | 3h 1m |
| Altitude | 34000 |
| Route | UPASI DCT TUNGA DCT SUWGI M985 EVINA/N0458F350 DCT KELEL DCT PERIT DCT ULMIN DCT ADORU UL606 CRD UL854 KOZLU |
| Aircraft | A320/M-SDE3FGHIRWY/LB1 |
Departure
| Time | 2026-05-08 14:52 |
|---|---|
| Airport | Vilnius International Airport (EYVI) |
Arrival
| Time | 2026-05-08 17:54 |
|---|---|
| Airport | Antalya International Airport (LTAI) |
| Time | Latitude | Longitude | Altitude | Speed | Heading |
|---|---|---|---|---|---|
| 2026-05-08 14:05 | 54.64593 | 25.28634 | 656 ft | 0 kts | 348° |
| 2026-05-08 14:41 | 54.64572 | 25.28643 | 654 ft | 4 kts | 338° |
| 2026-05-08 14:42 | 54.64549 | 25.28665 | 654 ft | 4 kts | 310° |
| 2026-05-08 14:42 | 54.64540 | 25.28700 | 657 ft | 2 kts | 259° |
| 2026-05-08 14:42 | 54.64542 | 25.28710 | 659 ft | 1 kts | 258° |
| 2026-05-08 14:45 | 54.64541 | 25.28706 | 658 ft | 3 kts | 258° |
| 2026-05-08 14:45 | 54.64520 | 25.28624 | 653 ft | 9 kts | 219° |
| 2026-05-08 14:45 | 54.64481 | 25.28623 | 654 ft | 8 kts | 170° |
| 2026-05-08 14:45 | 54.64412 | 25.28643 | 651 ft | 7 kts | 171° |
| 2026-05-08 14:46 | 54.64346 | 25.28660 | 650 ft | 14 kts | 173° |
| 2026-05-08 14:46 | 54.64252 | 25.28676 | 649 ft | 13 kts | 174° |
| 2026-05-08 14:46 | 54.64164 | 25.28691 | 647 ft | 13 kts | 174° |
| 2026-05-08 14:46 | 54.64076 | 25.28706 | 645 ft | 13 kts | 176° |
| 2026-05-08 14:47 | 54.63986 | 25.28669 | 641 ft | 14 kts | 201° |
| 2026-05-08 14:47 | 54.63889 | 25.28601 | 635 ft | 17 kts | 201° |
| 2026-05-08 14:47 | 54.63772 | 25.28520 | 627 ft | 19 kts | 202° |
| 2026-05-08 14:47 | 54.63641 | 25.28429 | 619 ft | 21 kts | 202° |
| 2026-05-08 14:48 | 54.63504 | 25.28333 | 612 ft | 20 kts | 201° |
| 2026-05-08 14:48 | 54.63376 | 25.28245 | 610 ft | 19 kts | 202° |
| 2026-05-08 14:48 | 54.63265 | 25.28168 | 615 ft | 16 kts | 202° |
| 2026-05-08 14:48 | 54.63166 | 25.28100 | 617 ft | 15 kts | 201° |
| 2026-05-08 14:49 | 54.63070 | 25.28033 | 607 ft | 15 kts | 202° |
| 2026-05-08 14:49 | 54.62973 | 25.27965 | 605 ft | 15 kts | 201° |
| 2026-05-08 14:49 | 54.62879 | 25.27899 | 603 ft | 15 kts | 202° |
| 2026-05-08 14:49 | 54.62786 | 25.27836 | 601 ft | 14 kts | 202° |
| 2026-05-08 14:50 | 54.62702 | 25.27777 | 601 ft | 12 kts | 201° |
| 2026-05-08 14:50 | 54.62630 | 25.27727 | 601 ft | 12 kts | 201° |
| 2026-05-08 14:50 | 54.62546 | 25.27670 | 603 ft | 11 kts | 198° |
| 2026-05-08 14:50 | 54.62491 | 25.27696 | 605 ft | 7 kts | 141° |
| 2026-05-08 14:51 | 54.62436 | 25.27771 | 606 ft | 11 kts | 139° |
| 2026-05-08 14:51 | 54.62406 | 25.27864 | 613 ft | 6 kts | 95° |
| 2026-05-08 14:51 | 54.62426 | 25.27892 | 607 ft | 0 kts | 21° |
| 2026-05-08 14:52 | 54.62643 | 25.28042 | 600 ft | 73 kts | 21° |
| 2026-05-08 14:52 | 54.64337 | 25.29211 | 824 ft | 169 kts | 22° |
| 2026-05-08 14:52 | 54.65446 | 25.29976 | 1683 ft | 171 kts | 24° |
| 2026-05-08 14:53 | 54.66534 | 25.30727 | 2680 ft | 166 kts | 25° |
| 2026-05-08 14:53 | 54.67620 | 25.31483 | 3176 ft | 175 kts | 26° |
| 2026-05-08 14:53 | 54.68391 | 25.32023 | 3413 ft | 185 kts | 27° |
| 2026-05-08 14:53 | 54.70083 | 25.33211 | 3885 ft | 207 kts | 26° |
| 2026-05-08 14:54 | 54.71509 | 25.34010 | 4316 ft | 226 kts | 11° |
| 2026-05-08 14:54 | 54.73109 | 25.33541 | 4874 ft | 248 kts | 336° |
| 2026-05-08 14:54 | 54.74021 | 25.32275 | 5221 ft | 264 kts | 311° |
| 2026-05-08 14:54 | 54.74733 | 25.29282 | 5762 ft | 281 kts | 274° |
| 2026-05-08 14:55 | 54.74460 | 25.25901 | 6422 ft | 288 kts | 251° |
| 2026-05-08 14:55 | 54.73396 | 25.21675 | 7401 ft | 291 kts | 241° |
| 2026-05-08 14:55 | 54.72427 | 25.18574 | 8144 ft | 294 kts | 240° |
| 2026-05-08 14:55 | 54.71761 | 25.16474 | 8642 ft | 295 kts | 240° |
| 2026-05-08 14:56 | 54.70794 | 25.13323 | 9374 ft | 298 kts | 242° |
| 2026-05-08 14:56 | 54.69867 | 25.10144 | 10085 ft | 301 kts | 243° |
| 2026-05-08 14:56 | 54.68941 | 25.06825 | 10522 ft | 313 kts | 243° |
| 2026-05-08 14:56 | 54.67991 | 25.03319 | 10816 ft | 330 kts | 244° |
| 2026-05-08 14:57 | 54.67006 | 24.99628 | 11100 ft | 346 kts | 244° |
| 2026-05-08 14:57 | 54.65979 | 24.95758 | 11341 ft | 363 kts | 244° |
| 2026-05-08 14:57 | 54.64906 | 24.91710 | 11554 ft | 379 kts | 244° |
| 2026-05-08 14:57 | 54.63793 | 24.87507 | 11904 ft | 389 kts | 244° |
| 2026-05-08 14:58 | 54.62664 | 24.83248 | 12470 ft | 392 kts | 244° |
| 2026-05-08 14:58 | 54.61524 | 24.78965 | 13085 ft | 394 kts | 243° |
| 2026-05-08 14:58 | 54.60372 | 24.74663 | 13686 ft | 396 kts | 243° |
| 2026-05-08 14:58 | 54.59211 | 24.70339 | 14228 ft | 399 kts | 243° |
| 2026-05-08 14:59 | 54.58041 | 24.65993 | 14749 ft | 401 kts | 243° |
| 2026-05-08 14:59 | 54.55672 | 24.57236 | 15803 ft | 405 kts | 243° |
| 2026-05-08 14:59 | 54.54476 | 24.52837 | 16328 ft | 407 kts | 242° |
| 2026-05-08 15:00 | 54.53270 | 24.48410 | 16839 ft | 409 kts | 242° |
| 2026-05-08 15:00 | 54.52057 | 24.43961 | 17356 ft | 411 kts | 242° |
| 2026-05-08 15:00 | 54.50856 | 24.39561 | 17832 ft | 413 kts | 242° |
| 2026-05-08 15:00 | 54.49628 | 24.35075 | 18317 ft | 415 kts | 242° |
| 2026-05-08 15:01 | 54.48397 | 24.30580 | 18733 ft | 417 kts | 242° |
| 2026-05-08 15:01 | 54.47160 | 24.26065 | 19138 ft | 419 kts | 242° |
| 2026-05-08 15:01 | 54.45916 | 24.21522 | 19528 ft | 421 kts | 242° |
| 2026-05-08 15:01 | 54.44662 | 24.16960 | 19905 ft | 423 kts | 242° |
| 2026-05-08 15:02 | 54.43400 | 24.12388 | 20268 ft | 425 kts | 242° |
| 2026-05-08 15:02 | 54.42129 | 24.07787 | 20634 ft | 427 kts | 242° |
| 2026-05-08 15:02 | 54.40851 | 24.03168 | 20982 ft | 430 kts | 242° |
| 2026-05-08 15:02 | 54.39562 | 23.98512 | 21323 ft | 432 kts | 242° |
| 2026-05-08 15:03 | 54.38268 | 23.93847 | 21654 ft | 434 kts | 242° |
| 2026-05-08 15:03 | 54.36961 | 23.89153 | 21972 ft | 437 kts | 242° |
| 2026-05-08 15:03 | 54.35648 | 23.84449 | 22267 ft | 439 kts | 242° |
| 2026-05-08 15:03 | 54.34324 | 23.79718 | 22562 ft | 441 kts | 241° |
| 2026-05-08 15:04 | 54.32990 | 23.74963 | 22849 ft | 443 kts | 241° |
| 2026-05-08 15:04 | 54.31668 | 23.70268 | 23133 ft | 445 kts | 241° |
| 2026-05-08 15:04 | 54.30298 | 23.65413 | 23417 ft | 447 kts | 241° |
| 2026-05-08 15:04 | 54.28941 | 23.60613 | 23697 ft | 449 kts | 241° |
| 2026-05-08 15:05 | 54.27576 | 23.55795 | 23929 ft | 451 kts | 240° |
| 2026-05-08 15:05 | 54.26204 | 23.50953 | 24190 ft | 452 kts | 240° |
| 2026-05-08 15:05 | 54.24725 | 23.46305 | 24423 ft | 449 kts | 233° |
| 2026-05-08 15:05 | 54.22843 | 23.42071 | 24666 ft | 446 kts | 224° |
| 2026-05-08 15:06 | 54.20618 | 23.38424 | 24900 ft | 443 kts | 216° |
| 2026-05-08 15:06 | 54.18113 | 23.35411 | 25121 ft | 440 kts | 207° |
| 2026-05-08 15:06 | 54.15390 | 23.33070 | 25337 ft | 437 kts | 200° |
| 2026-05-08 15:06 | 54.12586 | 23.31020 | 25540 ft | 438 kts | 200° |
| 2026-05-08 15:07 | 54.09779 | 23.28963 | 25745 ft | 439 kts | 200° |
| 2026-05-08 15:07 | 54.06970 | 23.26907 | 25944 ft | 440 kts | 200° |
| 2026-05-08 15:07 | 54.04152 | 23.24854 | 26131 ft | 441 kts | 200° |
| 2026-05-08 15:07 | 54.01331 | 23.22803 | 26313 ft | 442 kts | 200° |
| 2026-05-08 15:08 | 53.98499 | 23.20747 | 26492 ft | 443 kts | 200° |
| 2026-05-08 15:08 | 53.96627 | 23.19387 | 26656 ft | 442 kts | 200° |
| 2026-05-08 15:08 | 53.92849 | 23.16641 | 27028 ft | 441 kts | 199° |
| 2026-05-08 15:08 | 53.90032 | 23.14594 | 27311 ft | 440 kts | 199° |
| 2026-05-08 15:09 | 53.87216 | 23.12557 | 27563 ft | 439 kts | 199° |
| 2026-05-08 15:09 | 53.84406 | 23.10529 | 27792 ft | 439 kts | 199° |
| 2026-05-08 15:09 | 53.81601 | 23.08510 | 28020 ft | 438 kts | 199° |
| 2026-05-08 15:09 | 53.78795 | 23.06488 | 28254 ft | 438 kts | 199° |
| 2026-05-08 15:10 | 53.76029 | 23.04500 | 28497 ft | 437 kts | 199° |
| 2026-05-08 15:10 | 53.73198 | 23.02468 | 28733 ft | 436 kts | 199° |
| 2026-05-08 15:10 | 53.70445 | 23.00488 | 28985 ft | 435 kts | 198° |
| 2026-05-08 15:10 | 53.67660 | 22.98492 | 29241 ft | 434 kts | 198° |
| 2026-05-08 15:11 | 53.64883 | 22.96509 | 29503 ft | 433 kts | 198° |
| 2026-05-08 15:11 | 53.62113 | 22.94536 | 29774 ft | 432 kts | 198° |
| 2026-05-08 15:11 | 53.59347 | 22.92570 | 30054 ft | 431 kts | 198° |
| 2026-05-08 15:11 | 53.56592 | 22.90612 | 30297 ft | 430 kts | 198° |
| 2026-05-08 15:12 | 53.53839 | 22.88653 | 30506 ft | 429 kts | 198° |
| 2026-05-08 15:12 | 53.51095 | 22.86704 | 30700 ft | 428 kts | 198° |
| 2026-05-08 15:12 | 53.48349 | 22.84763 | 30891 ft | 428 kts | 199° |
| 2026-05-08 15:12 | 53.45602 | 22.82824 | 31073 ft | 428 kts | 199° |
| 2026-05-08 15:13 | 53.42857 | 22.80885 | 31250 ft | 428 kts | 199° |
| 2026-05-08 15:13 | 53.40117 | 22.78949 | 31423 ft | 428 kts | 199° |
| 2026-05-08 15:13 | 53.37371 | 22.77010 | 31594 ft | 428 kts | 199° |
| 2026-05-08 15:13 | 53.34626 | 22.75076 | 31771 ft | 428 kts | 200° |
| 2026-05-08 15:14 | 53.31877 | 22.73145 | 31944 ft | 428 kts | 200° |
| 2026-05-08 15:14 | 53.29129 | 22.71216 | 32118 ft | 429 kts | 200° |
| 2026-05-08 15:14 | 53.26379 | 22.69288 | 32287 ft | 429 kts | 200° |
| 2026-05-08 15:14 | 53.23628 | 22.67367 | 32453 ft | 429 kts | 200° |
| 2026-05-08 15:15 | 53.20875 | 22.65448 | 32617 ft | 429 kts | 200° |
| 2026-05-08 15:15 | 53.18119 | 22.63528 | 32770 ft | 430 kts | 200° |
| 2026-05-08 15:15 | 53.15359 | 22.61606 | 32933 ft | 430 kts | 201° |
| 2026-05-08 15:15 | 53.12598 | 22.59687 | 33098 ft | 430 kts | 201° |
| 2026-05-08 15:16 | 53.09839 | 22.57771 | 33258 ft | 430 kts | 201° |
| 2026-05-08 15:16 | 53.07111 | 22.55879 | 33406 ft | 430 kts | 201° |
| 2026-05-08 15:16 | 53.04343 | 22.53961 | 33560 ft | 431 kts | 201° |
| 2026-05-08 15:16 | 53.01578 | 22.52044 | 33715 ft | 431 kts | 201° |
| 2026-05-08 15:17 | 52.98805 | 22.50129 | 33864 ft | 432 kts | 201° |
| 2026-05-08 15:17 | 52.96032 | 22.48219 | 34036 ft | 432 kts | 201° |
| 2026-05-08 15:17 | 52.90454 | 22.44383 | 34126 ft | 437 kts | 202° |
| 2026-05-08 15:18 | 52.84832 | 22.40517 | 34118 ft | 438 kts | 202° |
| 2026-05-08 15:18 | 52.79204 | 22.36661 | 34115 ft | 438 kts | 202° |
| 2026-05-08 15:19 | 52.73565 | 22.32798 | 34116 ft | 439 kts | 202° |
| 2026-05-08 15:19 | 52.67953 | 22.28987 | 34120 ft | 439 kts | 202° |
| 2026-05-08 15:20 | 52.62298 | 22.25159 | 34131 ft | 439 kts | 202° |
| 2026-05-08 15:20 | 52.56639 | 22.21324 | 34121 ft | 440 kts | 202° |
| 2026-05-08 15:21 | 52.50980 | 22.17496 | 34115 ft | 440 kts | 202° |
| 2026-05-08 15:21 | 52.45322 | 22.13688 | 34111 ft | 440 kts | 202° |
| 2026-05-08 15:22 | 52.39652 | 22.09884 | 34110 ft | 440 kts | 203° |
| 2026-05-08 15:22 | 52.33971 | 22.06079 | 34117 ft | 441 kts | 203° |
| 2026-05-08 15:23 | 52.28290 | 22.02274 | 34121 ft | 441 kts | 203° |
| 2026-05-08 15:23 | 52.22601 | 21.98483 | 34116 ft | 442 kts | 203° |
| 2026-05-08 15:24 | 52.16900 | 21.94713 | 34121 ft | 442 kts | 203° |
| 2026-05-08 15:24 | 52.11237 | 21.90971 | 34114 ft | 442 kts | 203° |
| 2026-05-08 15:25 | 52.05539 | 21.87204 | 34118 ft | 442 kts | 204° |
| 2026-05-08 15:25 | 51.99832 | 21.83440 | 34115 ft | 443 kts | 204° |
| 2026-05-08 15:26 | 51.94125 | 21.79688 | 34114 ft | 443 kts | 204° |
| 2026-05-08 15:26 | 51.88405 | 21.75947 | 34118 ft | 443 kts | 204° |
| 2026-05-08 15:27 | 51.82683 | 21.72218 | 34117 ft | 443 kts | 204° |
| 2026-05-08 15:27 | 51.76957 | 21.68489 | 34121 ft | 444 kts | 204° |
| 2026-05-08 15:28 | 51.71231 | 21.64769 | 34118 ft | 444 kts | 204° |
| 2026-05-08 15:28 | 51.65498 | 21.61052 | 34116 ft | 444 kts | 204° |
| 2026-05-08 15:29 | 51.59760 | 21.57352 | 34119 ft | 444 kts | 204° |
| 2026-05-08 15:29 | 51.54027 | 21.53658 | 34111 ft | 444 kts | 204° |
| 2026-05-08 15:30 | 51.48291 | 21.49975 | 34107 ft | 444 kts | 204° |
| 2026-05-08 15:30 | 51.42550 | 21.46307 | 34109 ft | 444 kts | 204° |
| 2026-05-08 15:31 | 51.36852 | 21.42664 | 34238 ft | 442 kts | 205° |
| 2026-05-08 15:31 | 51.34010 | 21.40844 | 34466 ft | 439 kts | 205° |
| 2026-05-08 15:31 | 51.31186 | 21.39035 | 34694 ft | 437 kts | 205° |
| 2026-05-08 15:32 | 51.28370 | 21.37237 | 34925 ft | 434 kts | 205° |
| 2026-05-08 15:32 | 51.25565 | 21.35454 | 35070 ft | 434 kts | 205° |
| 2026-05-08 15:32 | 51.19916 | 21.31873 | 35112 ft | 439 kts | 205° |
| 2026-05-08 15:33 | 51.14216 | 21.28279 | 35119 ft | 440 kts | 205° |
| 2026-05-08 15:33 | 51.08517 | 21.24706 | 35119 ft | 440 kts | 205° |
| 2026-05-08 15:34 | 51.02826 | 21.21127 | 35121 ft | 440 kts | 205° |
| 2026-05-08 15:34 | 50.97135 | 21.17551 | 35119 ft | 439 kts | 205° |
| 2026-05-08 15:35 | 50.91448 | 21.13985 | 35122 ft | 439 kts | 205° |
| 2026-05-08 15:35 | 50.85759 | 21.10435 | 35120 ft | 439 kts | 205° |
| 2026-05-08 15:36 | 50.81037 | 21.07501 | 35119 ft | 439 kts | 205° |
| 2026-05-08 15:36 | 50.74406 | 21.03383 | 35118 ft | 438 kts | 205° |
| 2026-05-08 15:37 | 50.68734 | 20.99875 | 35117 ft | 438 kts | 206° |
| 2026-05-08 15:37 | 50.63064 | 20.96377 | 35120 ft | 437 kts | 206° |
| 2026-05-08 15:38 | 50.57435 | 20.92911 | 35127 ft | 437 kts | 206° |
| 2026-05-08 15:38 | 50.51741 | 20.89417 | 35125 ft | 436 kts | 206° |
| 2026-05-08 15:39 | 50.46126 | 20.85974 | 35123 ft | 436 kts | 206° |
| 2026-05-08 15:39 | 50.40482 | 20.82520 | 35125 ft | 436 kts | 206° |
| 2026-05-08 15:40 | 50.34833 | 20.79078 | 35131 ft | 435 kts | 206° |
| 2026-05-08 15:40 | 50.29193 | 20.75645 | 35130 ft | 434 kts | 206° |
| 2026-05-08 15:41 | 50.23564 | 20.72227 | 35121 ft | 434 kts | 206° |
| 2026-05-08 15:41 | 50.17933 | 20.68824 | 35113 ft | 434 kts | 206° |
| 2026-05-08 15:42 | 50.12297 | 20.65430 | 35119 ft | 434 kts | 206° |
| 2026-05-08 15:42 | 50.06671 | 20.62048 | 35115 ft | 433 kts | 206° |
| 2026-05-08 15:43 | 50.01046 | 20.58669 | 35112 ft | 433 kts | 206° |
| 2026-05-08 15:43 | 49.95422 | 20.55293 | 35108 ft | 433 kts | 206° |
| 2026-05-08 15:44 | 49.89795 | 20.51932 | 35109 ft | 433 kts | 206° |
| 2026-05-08 15:44 | 49.84167 | 20.48584 | 35108 ft | 433 kts | 206° |
| 2026-05-08 15:45 | 49.78541 | 20.45242 | 35113 ft | 433 kts | 205° |
| 2026-05-08 15:45 | 49.72912 | 20.41908 | 35118 ft | 433 kts | 205° |
| 2026-05-08 15:46 | 49.68239 | 20.39145 | 35128 ft | 432 kts | 205° |
| 2026-05-08 15:46 | 49.62625 | 20.35831 | 35123 ft | 432 kts | 205° |
| 2026-05-08 15:47 | 49.57014 | 20.32535 | 35128 ft | 431 kts | 205° |
| 2026-05-08 15:47 | 49.51419 | 20.29251 | 35125 ft | 430 kts | 205° |
| 2026-05-08 15:48 | 49.43049 | 20.24356 | 35113 ft | 429 kts | 205° |
| 2026-05-08 15:49 | 49.37456 | 20.21141 | 35104 ft | 431 kts | 201° |
| 2026-05-08 15:49 | 49.34503 | 20.20211 | 35100 ft | 438 kts | 190° |
| 2026-05-08 15:49 | 49.31437 | 20.20225 | 35085 ft | 446 kts | 178° |
| 2026-05-08 15:49 | 49.28377 | 20.21258 | 35070 ft | 456 kts | 166° |
| 2026-05-08 15:50 | 49.25470 | 20.23311 | 35061 ft | 466 kts | 153° |
| 2026-05-08 15:50 | 49.19992 | 20.28695 | 35069 ft | 468 kts | 153° |
| 2026-05-08 15:51 | 49.14498 | 20.34084 | 35062 ft | 469 kts | 153° |
| 2026-05-08 15:51 | 49.08992 | 20.39442 | 35071 ft | 470 kts | 153° |
| 2026-05-08 15:52 | 49.03469 | 20.44793 | 35075 ft | 470 kts | 153° |
| 2026-05-08 15:52 | 48.97947 | 20.50137 | 35080 ft | 471 kts | 154° |
| 2026-05-08 15:53 | 48.92456 | 20.55452 | 35082 ft | 471 kts | 154° |
| 2026-05-08 15:53 | 48.86928 | 20.60789 | 35079 ft | 471 kts | 154° |
| 2026-05-08 15:54 | 48.81400 | 20.66111 | 35076 ft | 471 kts | 154° |
| 2026-05-08 15:54 | 48.75866 | 20.71418 | 35070 ft | 470 kts | 154° |
| 2026-05-08 15:55 | 48.70328 | 20.76710 | 35064 ft | 470 kts | 154° |
| 2026-05-08 15:55 | 48.62022 | 20.84625 | 35054 ft | 470 kts | 154° |
| 2026-05-08 15:56 | 48.56490 | 20.89886 | 35053 ft | 470 kts | 155° |
| 2026-05-08 15:56 | 48.50952 | 20.95137 | 35055 ft | 470 kts | 155° |
| 2026-05-08 15:57 | 48.45417 | 21.00371 | 35052 ft | 469 kts | 155° |
| 2026-05-08 15:57 | 48.39881 | 21.05582 | 35046 ft | 470 kts | 155° |
| 2026-05-08 15:58 | 48.34340 | 21.10796 | 35050 ft | 470 kts | 155° |
| 2026-05-08 15:58 | 48.28798 | 21.16004 | 35046 ft | 470 kts | 155° |
| 2026-05-08 15:59 | 48.23247 | 21.21196 | 35038 ft | 470 kts | 155° |
| 2026-05-08 15:59 | 48.17692 | 21.26375 | 35042 ft | 470 kts | 155° |
| 2026-05-08 16:00 | 48.12136 | 21.31553 | 35039 ft | 470 kts | 155° |
| 2026-05-08 16:00 | 48.06616 | 21.36679 | 35032 ft | 470 kts | 154° |
| 2026-05-08 16:01 | 48.01064 | 21.41829 | 35047 ft | 470 kts | 154° |
| 2026-05-08 16:01 | 47.95503 | 21.46967 | 35055 ft | 469 kts | 154° |
| 2026-05-08 16:02 | 47.89950 | 21.52076 | 35051 ft | 468 kts | 154° |
| 2026-05-08 16:02 | 47.84409 | 21.57164 | 35049 ft | 467 kts | 154° |
| 2026-05-08 16:03 | 47.78884 | 21.62229 | 35054 ft | 466 kts | 154° |
| 2026-05-08 16:03 | 47.73391 | 21.67331 | 35048 ft | 465 kts | 154° |
| 2026-05-08 16:04 | 47.67938 | 21.72483 | 35045 ft | 464 kts | 153° |
| 2026-05-08 16:04 | 47.62486 | 21.77605 | 35042 ft | 463 kts | 154° |
| 2026-05-08 16:05 | 47.57040 | 21.82670 | 35040 ft | 462 kts | 154° |
| 2026-05-08 16:05 | 47.51630 | 21.87672 | 35039 ft | 461 kts | 154° |
| 2026-05-08 16:06 | 47.46195 | 21.92709 | 35040 ft | 460 kts | 154° |
| 2026-05-08 16:06 | 47.40775 | 21.97727 | 35032 ft | 460 kts | 154° |
| 2026-05-08 16:07 | 47.35355 | 22.02728 | 35042 ft | 459 kts | 154° |
| 2026-05-08 16:07 | 47.29934 | 22.07711 | 35039 ft | 459 kts | 154° |
| 2026-05-08 16:08 | 47.24518 | 22.12679 | 35041 ft | 458 kts | 154° |
| 2026-05-08 16:08 | 47.19104 | 22.17634 | 35036 ft | 458 kts | 154° |
| 2026-05-08 16:09 | 47.13690 | 22.22576 | 35035 ft | 458 kts | 154° |
| 2026-05-08 16:09 | 47.08282 | 22.27508 | 35038 ft | 458 kts | 154° |
| 2026-05-08 16:10 | 47.02874 | 22.32428 | 35044 ft | 457 kts | 154° |
| 2026-05-08 16:10 | 46.97465 | 22.37321 | 35046 ft | 457 kts | 154° |
| 2026-05-08 16:11 | 46.92063 | 22.42204 | 35047 ft | 456 kts | 154° |
| 2026-05-08 16:11 | 46.86655 | 22.47081 | 35054 ft | 456 kts | 154° |
| 2026-05-08 16:12 | 46.81257 | 22.51945 | 35053 ft | 456 kts | 154° |
| 2026-05-08 16:12 | 46.75857 | 22.56792 | 35051 ft | 456 kts | 154° |
| 2026-05-08 16:13 | 46.70457 | 22.61636 | 35048 ft | 456 kts | 154° |
| 2026-05-08 16:13 | 46.65055 | 22.66463 | 35043 ft | 455 kts | 154° |
| 2026-05-08 16:14 | 46.59683 | 22.71244 | 35039 ft | 456 kts | 154° |
| 2026-05-08 16:14 | 46.54276 | 22.76055 | 35044 ft | 455 kts | 154° |
| 2026-05-08 16:15 | 46.48873 | 22.80842 | 35049 ft | 455 kts | 154° |
| 2026-05-08 16:15 | 46.43467 | 22.85621 | 35031 ft | 455 kts | 154° |
| 2026-05-08 16:16 | 46.38058 | 22.90398 | 35036 ft | 455 kts | 154° |
| 2026-05-08 16:16 | 46.32652 | 22.95165 | 35029 ft | 455 kts | 154° |
| 2026-05-08 16:17 | 46.28162 | 22.99124 | 35027 ft | 455 kts | 154° |
| 2026-05-08 16:17 | 46.21844 | 23.04671 | 35012 ft | 455 kts | 154° |
| 2026-05-08 16:18 | 46.16434 | 23.09405 | 35015 ft | 455 kts | 154° |
| 2026-05-08 16:18 | 46.11054 | 23.14097 | 35014 ft | 455 kts | 154° |
| 2026-05-08 16:19 | 46.05642 | 23.18806 | 35022 ft | 455 kts | 154° |
| 2026-05-08 16:19 | 46.00226 | 23.23509 | 35028 ft | 455 kts | 154° |
| 2026-05-08 16:20 | 45.94813 | 23.28207 | 35038 ft | 455 kts | 154° |
| 2026-05-08 16:20 | 45.89397 | 23.32890 | 35039 ft | 454 kts | 154° |
| 2026-05-08 16:21 | 45.83978 | 23.37563 | 35044 ft | 454 kts | 154° |
| 2026-05-08 16:21 | 45.78566 | 23.42234 | 35040 ft | 454 kts | 154° |
| 2026-05-08 16:22 | 45.73163 | 23.46927 | 35043 ft | 454 kts | 153° |
| 2026-05-08 16:22 | 45.67753 | 23.51624 | 35047 ft | 455 kts | 153° |
| 2026-05-08 16:23 | 45.62347 | 23.56303 | 35053 ft | 454 kts | 153° |
| 2026-05-08 16:23 | 45.56937 | 23.60955 | 35058 ft | 453 kts | 153° |
| 2026-05-08 16:24 | 45.51538 | 23.65591 | 35066 ft | 453 kts | 153° |
| 2026-05-08 16:24 | 45.46138 | 23.70217 | 35060 ft | 452 kts | 153° |
| 2026-05-08 16:25 | 45.40747 | 23.74831 | 35057 ft | 452 kts | 153° |
| 2026-05-08 16:25 | 45.35403 | 23.79402 | 35047 ft | 451 kts | 153° |
| 2026-05-08 16:26 | 45.30023 | 23.83990 | 35038 ft | 451 kts | 153° |
| 2026-05-08 16:26 | 45.24641 | 23.88572 | 35029 ft | 451 kts | 153° |
| 2026-05-08 16:27 | 45.19263 | 23.93131 | 35017 ft | 451 kts | 153° |
| 2026-05-08 16:27 | 45.13892 | 23.97673 | 35009 ft | 451 kts | 153° |
| 2026-05-08 16:28 | 45.08490 | 24.02234 | 35002 ft | 451 kts | 153° |
| 2026-05-08 16:28 | 45.03095 | 24.06776 | 34991 ft | 451 kts | 153° |
| 2026-05-08 16:29 | 44.97705 | 24.11324 | 34980 ft | 451 kts | 153° |
| 2026-05-08 16:29 | 44.92300 | 24.15854 | 34976 ft | 452 kts | 153° |
| 2026-05-08 16:30 | 44.86892 | 24.20373 | 34982 ft | 452 kts | 153° |
| 2026-05-08 16:30 | 44.81472 | 24.24895 | 34986 ft | 452 kts | 153° |
| 2026-05-08 16:31 | 44.76051 | 24.29405 | 34992 ft | 452 kts | 152° |
| 2026-05-08 16:31 | 44.70636 | 24.33914 | 34993 ft | 452 kts | 152° |
| 2026-05-08 16:32 | 44.65220 | 24.38422 | 34988 ft | 453 kts | 152° |
| 2026-05-08 16:32 | 44.59798 | 24.42912 | 34980 ft | 452 kts | 152° |
| 2026-05-08 16:33 | 44.54373 | 24.47394 | 34976 ft | 453 kts | 152° |
| 2026-05-08 16:33 | 44.48943 | 24.51875 | 34972 ft | 453 kts | 152° |
| 2026-05-08 16:34 | 44.43504 | 24.56351 | 34980 ft | 453 kts | 152° |
| 2026-05-08 16:34 | 44.38064 | 24.60812 | 34979 ft | 454 kts | 152° |
| 2026-05-08 16:35 | 44.32613 | 24.65268 | 34981 ft | 454 kts | 152° |
| 2026-05-08 16:35 | 44.27159 | 24.69722 | 34979 ft | 455 kts | 152° |
| 2026-05-08 16:36 | 44.21700 | 24.74182 | 34983 ft | 455 kts | 153° |
| 2026-05-08 16:36 | 44.17167 | 24.77873 | 34983 ft | 454 kts | 152° |
| 2026-05-08 16:37 | 44.11710 | 24.82299 | 34983 ft | 454 kts | 153° |
| 2026-05-08 16:37 | 44.06254 | 24.86721 | 34981 ft | 454 kts | 152° |
| 2026-05-08 16:38 | 44.00797 | 24.91133 | 34987 ft | 454 kts | 152° |
| 2026-05-08 16:38 | 43.95338 | 24.95541 | 34987 ft | 454 kts | 152° |
| 2026-05-08 16:39 | 43.89877 | 24.99941 | 34984 ft | 454 kts | 152° |
| 2026-05-08 16:39 | 43.84416 | 25.04327 | 34981 ft | 454 kts | 153° |
| 2026-05-08 16:40 | 43.78944 | 25.08706 | 34978 ft | 454 kts | 153° |
| 2026-05-08 16:40 | 43.73475 | 25.13085 | 34970 ft | 455 kts | 152° |
| 2026-05-08 16:41 | 43.67999 | 25.17462 | 34965 ft | 455 kts | 153° |
| 2026-05-08 16:42 | 43.59766 | 25.24006 | 34974 ft | 456 kts | 153° |
| 2026-05-08 16:42 | 43.54268 | 25.28364 | 34977 ft | 456 kts | 153° |
| 2026-05-08 16:43 | 43.48772 | 25.32733 | 34981 ft | 456 kts | 153° |
| 2026-05-08 16:43 | 43.43313 | 25.37066 | 34981 ft | 456 kts | 153° |
| 2026-05-08 16:44 | 43.37803 | 25.41402 | 34982 ft | 457 kts | 153° |
| 2026-05-08 16:44 | 43.32284 | 25.45744 | 34993 ft | 457 kts | 153° |
| 2026-05-08 16:45 | 43.26761 | 25.50081 | 34994 ft | 457 kts | 153° |
| 2026-05-08 16:45 | 43.21239 | 25.54416 | 35005 ft | 457 kts | 153° |
| 2026-05-08 16:46 | 43.15710 | 25.58746 | 34990 ft | 458 kts | 153° |
| 2026-05-08 16:46 | 43.10177 | 25.63068 | 34991 ft | 458 kts | 153° |
| 2026-05-08 16:47 | 43.04629 | 25.67386 | 35001 ft | 459 kts | 153° |
| 2026-05-08 16:47 | 42.99069 | 25.71694 | 35009 ft | 459 kts | 153° |
| 2026-05-08 16:48 | 42.93518 | 25.76003 | 35019 ft | 459 kts | 153° |
| 2026-05-08 16:48 | 42.87964 | 25.80313 | 35033 ft | 460 kts | 153° |
| 2026-05-08 16:49 | 42.82401 | 25.84611 | 35044 ft | 460 kts | 153° |
| 2026-05-08 16:49 | 42.76827 | 25.88902 | 35047 ft | 460 kts | 153° |
| 2026-05-08 16:50 | 42.71250 | 25.93192 | 35045 ft | 461 kts | 153° |
| 2026-05-08 16:50 | 42.65661 | 25.97489 | 35045 ft | 461 kts | 153° |
| 2026-05-08 16:51 | 42.60069 | 26.01778 | 35041 ft | 462 kts | 153° |
| 2026-05-08 16:51 | 42.54459 | 26.06066 | 35039 ft | 463 kts | 153° |
| 2026-05-08 16:52 | 42.48876 | 26.10326 | 35043 ft | 464 kts | 153° |
| 2026-05-08 16:52 | 42.43245 | 26.14609 | 35051 ft | 464 kts | 153° |
| 2026-05-08 16:53 | 42.34787 | 26.21040 | 35045 ft | 466 kts | 153° |
| 2026-05-08 16:53 | 42.29143 | 26.25329 | 35048 ft | 466 kts | 153° |
| 2026-05-08 16:54 | 42.23479 | 26.29601 | 35046 ft | 467 kts | 153° |
| 2026-05-08 16:54 | 42.17810 | 26.33868 | 35055 ft | 467 kts | 153° |
| 2026-05-08 16:55 | 42.12136 | 26.38133 | 35054 ft | 468 kts | 153° |
| 2026-05-08 16:55 | 42.06447 | 26.42403 | 35062 ft | 468 kts | 153° |
| 2026-05-08 16:56 | 42.00755 | 26.46687 | 35062 ft | 469 kts | 153° |
| 2026-05-08 16:56 | 41.95052 | 26.50966 | 35063 ft | 470 kts | 153° |
| 2026-05-08 16:57 | 41.89330 | 26.55235 | 35070 ft | 471 kts | 153° |
| 2026-05-08 16:57 | 41.83852 | 26.59972 | 35069 ft | 473 kts | 147° |
| 2026-05-08 16:58 | 41.78477 | 26.65077 | 35071 ft | 474 kts | 147° |
| 2026-05-08 16:58 | 41.73083 | 26.70173 | 35077 ft | 474 kts | 147° |
| 2026-05-08 16:59 | 41.67678 | 26.75258 | 35075 ft | 475 kts | 147° |
| 2026-05-08 16:59 | 41.62266 | 26.80347 | 35074 ft | 476 kts | 147° |
| 2026-05-08 17:00 | 41.56842 | 26.85427 | 35075 ft | 476 kts | 147° |
| 2026-05-08 17:00 | 41.51410 | 26.90501 | 35073 ft | 477 kts | 147° |
| 2026-05-08 17:01 | 41.45978 | 26.95581 | 35090 ft | 477 kts | 147° |
| 2026-05-08 17:01 | 41.40536 | 27.00669 | 35102 ft | 478 kts | 147° |
| 2026-05-08 17:02 | 41.35091 | 27.05737 | 35096 ft | 478 kts | 147° |
| 2026-05-08 17:02 | 41.29638 | 27.10799 | 35096 ft | 478 kts | 147° |
| 2026-05-08 17:03 | 41.24185 | 27.15851 | 35097 ft | 478 kts | 147° |
| 2026-05-08 17:03 | 41.18744 | 27.20882 | 35096 ft | 478 kts | 147° |
| 2026-05-08 17:04 | 41.13269 | 27.25927 | 35098 ft | 478 kts | 147° |
| 2026-05-08 17:04 | 41.07846 | 27.30929 | 35098 ft | 478 kts | 147° |
| 2026-05-08 17:05 | 41.02339 | 27.35995 | 35103 ft | 478 kts | 147° |
| 2026-05-08 17:05 | 40.96906 | 27.40968 | 35104 ft | 479 kts | 147° |
| 2026-05-08 17:06 | 40.91324 | 27.45762 | 35105 ft | 477 kts | 152° |
| 2026-05-08 17:06 | 40.85549 | 27.50083 | 35099 ft | 477 kts | 154° |
| 2026-05-08 17:07 | 40.79732 | 27.54295 | 35102 ft | 477 kts | 153° |
| 2026-05-08 17:07 | 40.73949 | 27.58605 | 35100 ft | 478 kts | 152° |
| 2026-05-08 17:08 | 40.68193 | 27.62996 | 35109 ft | 478 kts | 152° |
| 2026-05-08 17:08 | 40.62429 | 27.67373 | 35101 ft | 479 kts | 153° |
| 2026-05-08 17:09 | 40.56642 | 27.71724 | 35096 ft | 479 kts | 153° |
| 2026-05-08 17:09 | 40.50849 | 27.76074 | 35099 ft | 480 kts | 153° |
| 2026-05-08 17:10 | 40.45046 | 27.80429 | 35101 ft | 480 kts | 153° |
| 2026-05-08 17:10 | 40.39236 | 27.84768 | 35102 ft | 480 kts | 153° |
| 2026-05-08 17:11 | 40.33430 | 27.89093 | 35102 ft | 481 kts | 153° |
| 2026-05-08 17:11 | 40.27616 | 27.93427 | 35098 ft | 480 kts | 153° |
| 2026-05-08 17:12 | 40.21806 | 27.97752 | 35108 ft | 480 kts | 153° |
| 2026-05-08 17:12 | 40.15993 | 28.02062 | 35106 ft | 480 kts | 153° |
| 2026-05-08 17:13 | 40.10183 | 28.06363 | 35107 ft | 480 kts | 153° |
| 2026-05-08 17:13 | 40.04412 | 28.10620 | 35108 ft | 480 kts | 153° |
| 2026-05-08 17:14 | 39.98598 | 28.14901 | 35115 ft | 480 kts | 153° |
| 2026-05-08 17:14 | 39.92787 | 28.19185 | 35111 ft | 480 kts | 153° |
| 2026-05-08 17:15 | 39.86964 | 28.23438 | 35113 ft | 480 kts | 153° |
| 2026-05-08 17:15 | 39.81133 | 28.27664 | 35113 ft | 480 kts | 153° |
| 2026-05-08 17:16 | 39.75307 | 28.31884 | 35117 ft | 480 kts | 154° |
| 2026-05-08 17:16 | 39.69478 | 28.36106 | 35119 ft | 479 kts | 154° |
| 2026-05-08 17:17 | 39.63654 | 28.40329 | 35126 ft | 480 kts | 154° |
| 2026-05-08 17:17 | 39.57825 | 28.44549 | 35134 ft | 480 kts | 154° |
| 2026-05-08 17:18 | 39.51997 | 28.48752 | 35136 ft | 480 kts | 154° |
| 2026-05-08 17:18 | 39.46156 | 28.52955 | 35136 ft | 480 kts | 154° |
| 2026-05-08 17:19 | 39.40312 | 28.57150 | 35147 ft | 481 kts | 154° |
| 2026-05-08 17:19 | 39.34453 | 28.61344 | 35148 ft | 481 kts | 154° |
| 2026-05-08 17:20 | 39.28600 | 28.65529 | 35162 ft | 479 kts | 156° |
| 2026-05-08 17:20 | 39.22779 | 28.69688 | 35164 ft | 478 kts | 156° |
| 2026-05-08 17:21 | 39.16955 | 28.73836 | 35159 ft | 478 kts | 156° |
| 2026-05-08 17:21 | 39.11123 | 28.77982 | 35160 ft | 479 kts | 156° |
| 2026-05-08 17:22 | 39.05307 | 28.82109 | 35151 ft | 479 kts | 156° |
| 2026-05-08 17:22 | 38.99491 | 28.86251 | 35160 ft | 480 kts | 156° |
| 2026-05-08 17:23 | 38.93659 | 28.90402 | 35165 ft | 479 kts | 156° |
| 2026-05-08 17:23 | 38.87817 | 28.94544 | 35155 ft | 480 kts | 156° |
| 2026-05-08 17:24 | 38.81966 | 28.98688 | 35156 ft | 480 kts | 156° |
| 2026-05-08 17:24 | 38.76120 | 29.02830 | 35162 ft | 481 kts | 156° |
| 2026-05-08 17:25 | 38.71257 | 29.06259 | 35152 ft | 481 kts | 156° |
| 2026-05-08 17:25 | 38.64397 | 29.11083 | 35157 ft | 481 kts | 156° |
| 2026-05-08 17:26 | 38.58533 | 29.15211 | 35156 ft | 481 kts | 156° |
| 2026-05-08 17:26 | 38.52661 | 29.19332 | 35154 ft | 482 kts | 157° |
| 2026-05-08 17:27 | 38.47773 | 29.22745 | 35153 ft | 482 kts | 157° |
| 2026-05-08 17:27 | 38.40899 | 29.27564 | 35160 ft | 482 kts | 156° |
| 2026-05-08 17:28 | 38.35066 | 29.31648 | 35159 ft | 483 kts | 157° |
| 2026-05-08 17:28 | 38.30109 | 29.35098 | 35159 ft | 483 kts | 157° |
| 2026-05-08 17:29 | 38.24205 | 29.39197 | 35162 ft | 484 kts | 157° |
| 2026-05-08 17:29 | 38.18296 | 29.43301 | 35171 ft | 484 kts | 157° |
| 2026-05-08 17:30 | 38.12390 | 29.47404 | 35172 ft | 484 kts | 157° |
| 2026-05-08 17:30 | 38.06482 | 29.51494 | 35169 ft | 484 kts | 157° |
| 2026-05-08 17:31 | 38.00563 | 29.55580 | 35172 ft | 484 kts | 157° |
| 2026-05-08 17:31 | 37.94642 | 29.59660 | 35172 ft | 484 kts | 157° |
| 2026-05-08 17:32 | 37.88719 | 29.63737 | 35171 ft | 484 kts | 157° |
| 2026-05-08 17:32 | 37.82798 | 29.67805 | 35167 ft | 484 kts | 157° |
| 2026-05-08 17:33 | 37.79884 | 29.69957 | 34959 ft | 486 kts | 151° |
| 2026-05-08 17:33 | 37.77212 | 29.72613 | 34319 ft | 493 kts | 141° |
| 2026-05-08 17:33 | 37.74773 | 29.75680 | 33415 ft | 496 kts | 139° |
| 2026-05-08 17:33 | 37.72343 | 29.78788 | 32576 ft | 498 kts | 139° |
| 2026-05-08 17:34 | 37.69905 | 29.81904 | 31845 ft | 499 kts | 138° |
| 2026-05-08 17:34 | 37.67453 | 29.85021 | 31128 ft | 501 kts | 138° |
| 2026-05-08 17:34 | 37.64992 | 29.88135 | 30435 ft | 502 kts | 138° |
| 2026-05-08 17:34 | 37.62522 | 29.91248 | 29666 ft | 503 kts | 137° |
| 2026-05-08 17:35 | 37.60085 | 29.94313 | 28889 ft | 499 kts | 137° |
| 2026-05-08 17:35 | 37.57641 | 29.97386 | 28126 ft | 494 kts | 137° |
| 2026-05-08 17:35 | 37.55228 | 30.00417 | 27387 ft | 490 kts | 137° |
| 2026-05-08 17:35 | 37.52790 | 30.03420 | 26654 ft | 485 kts | 142° |
| 2026-05-08 17:36 | 37.50041 | 30.05793 | 25943 ft | 475 kts | 156° |
| 2026-05-08 17:36 | 37.46989 | 30.07204 | 25401 ft | 461 kts | 172° |
| 2026-05-08 17:36 | 37.43884 | 30.07649 | 25194 ft | 439 kts | 183° |
| 2026-05-08 17:36 | 37.40893 | 30.07742 | 25168 ft | 419 kts | 186° |
| 2026-05-08 17:37 | 37.38070 | 30.07443 | 25180 ft | 398 kts | 191° |
| 2026-05-08 17:37 | 37.35364 | 30.07072 | 25069 ft | 385 kts | 191° |
| 2026-05-08 17:37 | 37.32702 | 30.07070 | 24804 ft | 384 kts | 175° |
| 2026-05-08 17:37 | 37.30143 | 30.08062 | 24405 ft | 389 kts | 155° |
| 2026-05-08 17:38 | 37.27938 | 30.10026 | 23969 ft | 391 kts | 135° |
| 2026-05-08 17:38 | 37.26332 | 30.12756 | 23489 ft | 390 kts | 117° |
| 2026-05-08 17:38 | 37.25079 | 30.15769 | 22950 ft | 388 kts | 117° |
| 2026-05-08 17:38 | 37.23831 | 30.18766 | 22500 ft | 386 kts | 117° |
| 2026-05-08 17:39 | 37.22593 | 30.21735 | 22089 ft | 382 kts | 118° |
| 2026-05-08 17:39 | 37.21362 | 30.24680 | 21623 ft | 381 kts | 118° |
| 2026-05-08 17:39 | 37.20136 | 30.27608 | 21190 ft | 378 kts | 118° |
| 2026-05-08 17:39 | 37.18913 | 30.30517 | 20769 ft | 376 kts | 118° |
| 2026-05-08 17:40 | 37.17695 | 30.33411 | 20353 ft | 374 kts | 118° |
| 2026-05-08 17:40 | 37.16487 | 30.36284 | 19941 ft | 372 kts | 118° |
| 2026-05-08 17:40 | 37.15284 | 30.39141 | 19536 ft | 370 kts | 118° |
| 2026-05-08 17:40 | 37.14087 | 30.41983 | 19135 ft | 368 kts | 118° |
| 2026-05-08 17:41 | 37.12893 | 30.44817 | 18685 ft | 367 kts | 118° |
| 2026-05-08 17:41 | 37.11698 | 30.47652 | 18180 ft | 368 kts | 118° |
| 2026-05-08 17:41 | 37.10500 | 30.50493 | 17648 ft | 368 kts | 118° |
| 2026-05-08 17:41 | 37.09303 | 30.53324 | 17125 ft | 368 kts | 119° |
| 2026-05-08 17:42 | 37.08126 | 30.56109 | 16601 ft | 356 kts | 119° |
| 2026-05-08 17:42 | 37.06993 | 30.58797 | 16097 ft | 344 kts | 119° |
| 2026-05-08 17:42 | 37.05889 | 30.61418 | 15598 ft | 335 kts | 119° |
| 2026-05-08 17:42 | 37.04743 | 30.63926 | 15117 ft | 329 kts | 128° |
| 2026-05-08 17:43 | 37.03175 | 30.65963 | 14639 ft | 324 kts | 145° |
| 2026-05-08 17:43 | 37.01273 | 30.67339 | 14174 ft | 318 kts | 161° |
| 2026-05-08 17:43 | 36.99159 | 30.68018 | 13670 ft | 312 kts | 177° |
| 2026-05-08 17:43 | 36.97017 | 30.68005 | 13158 ft | 306 kts | 186° |
| 2026-05-08 17:44 | 36.94901 | 30.67817 | 12648 ft | 305 kts | 186° |
| 2026-05-08 17:44 | 36.92791 | 30.67636 | 12141 ft | 303 kts | 186° |
| 2026-05-08 17:44 | 36.90697 | 30.67461 | 11644 ft | 302 kts | 185° |
| 2026-05-08 17:44 | 36.88588 | 30.67287 | 11149 ft | 302 kts | 185° |
| 2026-05-08 17:45 | 36.86492 | 30.67113 | 10670 ft | 302 kts | 184° |
| 2026-05-08 17:45 | 36.84396 | 30.66939 | 10198 ft | 302 kts | 184° |
| 2026-05-08 17:45 | 36.82299 | 30.66767 | 9700 ft | 302 kts | 184° |
| 2026-05-08 17:45 | 36.80205 | 30.66596 | 9189 ft | 301 kts | 184° |
| 2026-05-08 17:46 | 36.78114 | 30.66424 | 8675 ft | 301 kts | 184° |
| 2026-05-08 17:46 | 36.76032 | 30.66251 | 8178 ft | 299 kts | 184° |
| 2026-05-08 17:46 | 36.73959 | 30.66077 | 7683 ft | 298 kts | 184° |
| 2026-05-08 17:46 | 36.71897 | 30.65902 | 7200 ft | 296 kts | 184° |
| 2026-05-08 17:47 | 36.69844 | 30.65730 | 6720 ft | 295 kts | 184° |
| 2026-05-08 17:47 | 36.67807 | 30.65561 | 6232 ft | 292 kts | 184° |
| 2026-05-08 17:47 | 36.65785 | 30.65496 | 5730 ft | 289 kts | 171° |
| 2026-05-08 17:47 | 36.64530 | 30.65990 | 5411 ft | 286 kts | 149° |
| 2026-05-08 17:48 | 36.62883 | 30.68405 | 5018 ft | 269 kts | 109° |
| 2026-05-08 17:48 | 36.62595 | 30.70622 | 5011 ft | 260 kts | 86° |
| 2026-05-08 17:48 | 36.63010 | 30.72811 | 4962 ft | 261 kts | 64° |
| 2026-05-08 17:48 | 36.64066 | 30.74633 | 4808 ft | 261 kts | 41° |
| 2026-05-08 17:49 | 36.65609 | 30.75795 | 4552 ft | 261 kts | 18° |
| 2026-05-08 17:49 | 36.67387 | 30.76188 | 4237 ft | 260 kts | 6° |
| 2026-05-08 17:49 | 36.69184 | 30.76422 | 3900 ft | 259 kts | 6° |
| 2026-05-08 17:49 | 36.70971 | 30.76662 | 3568 ft | 258 kts | 6° |
| 2026-05-08 17:50 | 36.72745 | 30.76904 | 3235 ft | 255 kts | 6° |
| 2026-05-08 17:50 | 36.74461 | 30.77138 | 2901 ft | 237 kts | 6° |
| 2026-05-08 17:50 | 36.76015 | 30.77351 | 2613 ft | 213 kts | 6° |
| 2026-05-08 17:50 | 36.77445 | 30.77546 | 2356 ft | 198 kts | 6° |
| 2026-05-08 17:51 | 36.78760 | 30.77725 | 2094 ft | 181 kts | 6° |
| 2026-05-08 17:51 | 36.79960 | 30.77889 | 1866 ft | 166 kts | 6° |
| 2026-05-08 17:51 | 36.81063 | 30.78040 | 1657 ft | 153 kts | 6° |
| 2026-05-08 17:51 | 36.82094 | 30.78180 | 1452 ft | 148 kts | 7° |
| 2026-05-08 17:52 | 36.83114 | 30.78320 | 1264 ft | 147 kts | 7° |
| 2026-05-08 17:52 | 36.84132 | 30.78459 | 1067 ft | 147 kts | 8° |
| 2026-05-08 17:52 | 36.86162 | 30.78732 | 711 ft | 146 kts | 9° |
| 2026-05-08 17:53 | 36.87170 | 30.78871 | 532 ft | 146 kts | 8° |
| 2026-05-08 17:53 | 36.88174 | 30.79014 | 315 ft | 145 kts | 8° |
| 2026-05-08 17:53 | 36.89159 | 30.79151 | 204 ft | 133 kts | 8° |
| 2026-05-08 17:53 | 36.89915 | 30.79255 | 189 ft | 76 kts | 7° |
| 2026-05-08 17:54 | 36.90276 | 30.79309 | 189 ft | 31 kts | 17° |